sensor_id;sensor_type;location;lat;lon;timestamp;P1;durP1;ratioP1;P2;durP2;ratioP2
35330;SDS011;21441;52.190;20.910;2023-05-20T00:02:08;11.18;;;8.07;;
35330;SDS011;21441;52.190;20.910;2023-05-20T00:04:35;12.20;;;8.25;;
35330;SDS011;21441;52.190;20.910;2023-05-20T00:07:02;11.93;;;8.00;;
35330;SDS011;21441;52.190;20.910;2023-05-20T00:09:31;11.98;;;8.63;;
35330;SDS011;21441;52.190;20.910;2023-05-20T00:11:58;11.57;;;8.15;;
35330;SDS011;21441;52.190;20.910;2023-05-20T00:14:26;10.13;;;7.30;;
35330;SDS011;21441;52.190;20.910;2023-05-20T00:16:52;9.80;;;8.07;;
35330;SDS011;21441;52.190;20.910;2023-05-20T00:19:20;12.82;;;7.38;;
35330;SDS011;21441;52.190;20.910;2023-05-20T00:21:47;13.65;;;8.20;;
35330;SDS011;21441;52.190;20.910;2023-05-20T00:24:14;12.60;;;8.70;;
35330;SDS011;21441;52.190;20.910;2023-05-20T00:26:42;12.82;;;8.48;;
35330;SDS011;21441;52.190;20.910;2023-05-20T00:29:10;12.38;;;8.05;;
35330;SDS011;21441;52.190;20.910;2023-05-20T00:31:38;13.80;;;7.57;;
35330;SDS011;21441;52.190;20.910;2023-05-20T00:34:05;13.98;;;8.27;;
35330;SDS011;21441;52.190;20.910;2023-05-20T00:36:32;12.43;;;7.70;;
35330;SDS011;21441;52.190;20.910;2023-05-20T00:39:00;11.52;;;7.18;;
35330;SDS011;21441;52.190;20.910;2023-05-20T00:41:27;10.23;;;7.88;;
35330;SDS011;21441;52.190;20.910;2023-05-20T00:43:55;11.50;;;7.60;;
35330;SDS011;21441;52.190;20.910;2023-05-20T00:46:22;11.07;;;7.82;;
35330;SDS011;21441;52.190;20.910;2023-05-20T00:48:52;13.48;;;7.38;;
35330;SDS011;21441;52.190;20.910;2023-05-20T00:51:19;10.57;;;7.10;;
35330;SDS011;21441;52.190;20.910;2023-05-20T00:53:47;10.77;;;7.28;;
35330;SDS011;21441;52.190;20.910;2023-05-20T00:56:15;8.68;;;6.28;;
35330;SDS011;21441;52.190;20.910;2023-05-20T00:58:42;12.40;;;7.80;;
35330;SDS011;21441;52.190;20.910;2023-05-20T01:01:11;8.25;;;6.47;;
35330;SDS011;21441;52.190;20.910;2023-05-20T01:03:38;8.95;;;7.10;;
35330;SDS011;21441;52.190;20.910;2023-05-20T01:06:05;12.68;;;7.38;;
35330;SDS011;21441;52.190;20.910;2023-05-20T01:08:32;7.75;;;6.28;;
35330;SDS011;21441;52.190;20.910;2023-05-20T01:11:02;10.90;;;6.25;;
35330;SDS011;21441;52.190;20.910;2023-05-20T01:13:33;9.30;;;6.15;;
35330;SDS011;21441;52.190;20.910;2023-05-20T01:16:04;10.48;;;7.07;;
35330;SDS011;21441;52.190;20.910;2023-05-20T01:18:36;9.60;;;6.43;;
35330;SDS011;21441;52.190;20.910;2023-05-20T01:21:07;8.98;;;6.50;;
35330;SDS011;21441;52.190;20.910;2023-05-20T01:23:39;10.20;;;6.07;;
35330;SDS011;21441;52.190;20.910;2023-05-20T01:26:07;9.83;;;5.60;;
35330;SDS011;21441;52.190;20.910;2023-05-20T01:28:35;11.10;;;6.38;;
35330;SDS011;21441;52.190;20.910;2023-05-20T01:31:04;8.27;;;6.32;;
35330;SDS011;21441;52.190;20.910;2023-05-20T01:33:38;11.63;;;6.55;;
35330;SDS011;21441;52.190;20.910;2023-05-20T01:36:08;10.40;;;5.93;;
35330;SDS011;21441;52.190;20.910;2023-05-20T01:38:36;11.23;;;6.13;;
35330;SDS011;21441;52.190;20.910;2023-05-20T01:41:06;7.22;;;5.50;;
35330;SDS011;21441;52.190;20.910;2023-05-20T01:43:34;10.20;;;5.87;;
35330;SDS011;21441;52.190;20.910;2023-05-20T01:46:04;10.23;;;5.73;;
35330;SDS011;21441;52.190;20.910;2023-05-20T01:48:32;8.68;;;5.72;;
35330;SDS011;21441;52.190;20.910;2023-05-20T01:50:59;9.65;;;5.50;;
35330;SDS011;21441;52.190;20.910;2023-05-20T01:53:27;11.25;;;5.88;;
35330;SDS011;21441;52.190;20.910;2023-05-20T01:55:54;7.88;;;6.00;;
35330;SDS011;21441;52.190;20.910;2023-05-20T01:58:23;10.10;;;5.53;;
35330;SDS011;21441;52.190;20.910;2023-05-20T02:00:50;7.45;;;5.25;;
35330;SDS011;21441;52.190;20.910;2023-05-20T02:03:17;10.45;;;5.53;;
35330;SDS011;21441;52.190;20.910;2023-05-20T02:05:44;8.68;;;5.60;;
35330;SDS011;21441;52.190;20.910;2023-05-20T02:08:11;8.05;;;5.18;;
35330;SDS011;21441;52.190;20.910;2023-05-20T02:10:38;7.55;;;5.60;;
35330;SDS011;21441;52.190;20.910;2023-05-20T02:13:06;7.40;;;5.10;;
35330;SDS011;21441;52.190;20.910;2023-05-20T02:15:34;6.00;;;5.05;;
35330;SDS011;21441;52.190;20.910;2023-05-20T02:18:01;8.98;;;5.30;;
35330;SDS011;21441;52.190;20.910;2023-05-20T02:20:30;8.63;;;5.43;;
35330;SDS011;21441;52.190;20.910;2023-05-20T02:23:01;6.70;;;5.30;;
35330;SDS011;21441;52.190;20.910;2023-05-20T02:25:30;9.15;;;5.13;;
35330;SDS011;21441;52.190;20.910;2023-05-20T02:27:57;7.20;;;4.90;;
35330;SDS011;21441;52.190;20.910;2023-05-20T02:30:24;6.47;;;5.43;;
35330;SDS011;21441;52.190;20.910;2023-05-20T02:32:54;7.10;;;4.75;;
35330;SDS011;21441;52.190;20.910;2023-05-20T02:35:22;6.70;;;5.10;;
35330;SDS011;21441;52.190;20.910;2023-05-20T02:37:49;7.13;;;5.72;;
35330;SDS011;21441;52.190;20.910;2023-05-20T02:40:16;7.80;;;5.32;;
35330;SDS011;21441;52.190;20.910;2023-05-20T02:42:44;7.65;;;5.28;;
35330;SDS011;21441;52.190;20.910;2023-05-20T02:45:12;7.65;;;5.13;;
35330;SDS011;21441;52.190;20.910;2023-05-20T02:47:39;7.78;;;4.95;;
35330;SDS011;21441;52.190;20.910;2023-05-20T02:50:08;8.77;;;5.43;;
35330;SDS011;21441;52.190;20.910;2023-05-20T02:52:35;9.10;;;5.15;;
35330;SDS011;21441;52.190;20.910;2023-05-20T02:55:04;7.60;;;4.93;;
35330;SDS011;21441;52.190;20.910;2023-05-20T02:57:32;7.60;;;5.03;;
35330;SDS011;21441;52.190;20.910;2023-05-20T03:00:02;7.25;;;5.32;;
35330;SDS011;21441;52.190;20.910;2023-05-20T03:02:32;7.45;;;5.38;;
35330;SDS011;21441;52.190;20.910;2023-05-20T03:04:59;6.65;;;4.28;;
35330;SDS011;21441;52.190;20.910;2023-05-20T03:07:28;7.97;;;5.07;;
35330;SDS011;21441;52.190;20.910;2023-05-20T03:09:55;7.32;;;5.05;;
35330;SDS011;21441;52.190;20.910;2023-05-20T03:12:23;7.28;;;5.43;;
35330;SDS011;21441;52.190;20.910;2023-05-20T03:14:51;7.65;;;4.50;;
35330;SDS011;21441;52.190;20.910;2023-05-20T03:17:20;7.72;;;4.72;;
35330;SDS011;21441;52.190;20.910;2023-05-20T03:19:47;6.70;;;4.88;;
35330;SDS011;21441;52.190;20.910;2023-05-20T03:22:14;9.35;;;5.13;;
35330;SDS011;21441;52.190;20.910;2023-05-20T03:24:42;7.85;;;5.45;;
35330;SDS011;21441;52.190;20.910;2023-05-20T03:27:10;5.65;;;4.38;;
35330;SDS011;21441;52.190;20.910;2023-05-20T03:29:37;6.85;;;4.13;;
35330;SDS011;21441;52.190;20.910;2023-05-20T03:32:05;7.13;;;5.03;;
35330;SDS011;21441;52.190;20.910;2023-05-20T03:34:32;7.10;;;4.72;;
35330;SDS011;21441;52.190;20.910;2023-05-20T03:37:00;5.40;;;4.38;;
35330;SDS011;21441;52.190;20.910;2023-05-20T03:39:26;7.00;;;4.57;;
35330;SDS011;21441;52.190;20.910;2023-05-20T03:41:55;4.78;;;4.28;;
35330;SDS011;21441;52.190;20.910;2023-05-20T03:44:22;9.55;;;4.35;;
35330;SDS011;21441;52.190;20.910;2023-05-20T03:46:49;6.25;;;4.63;;
35330;SDS011;21441;52.190;20.910;2023-05-20T03:49:16;8.30;;;4.95;;
35330;SDS011;21441;52.190;20.910;2023-05-20T03:51:43;8.10;;;4.85;;
35330;SDS011;21441;52.190;20.910;2023-05-20T03:54:10;10.23;;;5.30;;
35330;SDS011;21441;52.190;20.910;2023-05-20T03:56:38;9.52;;;4.80;;
35330;SDS011;21441;52.190;20.910;2023-05-20T03:59:06;5.65;;;4.10;;
35330;SDS011;21441;52.190;20.910;2023-05-20T04:01:34;5.85;;;4.53;;
35330;SDS011;21441;52.190;20.910;2023-05-20T04:04:01;7.95;;;4.82;;
35330;SDS011;21441;52.190;20.910;2023-05-20T04:06:29;6.25;;;4.88;;
35330;SDS011;21441;52.190;20.910;2023-05-20T04:08:56;6.32;;;4.88;;
35330;SDS011;21441;52.190;20.910;2023-05-20T04:11:23;7.10;;;5.18;;
35330;SDS011;21441;52.190;20.910;2023-05-20T04:13:50;8.55;;;5.50;;
35330;SDS011;21441;52.190;20.910;2023-05-20T04:16:19;10.02;;;5.20;;
35330;SDS011;21441;52.190;20.910;2023-05-20T04:18:46;7.10;;;5.63;;
35330;SDS011;21441;52.190;20.910;2023-05-20T04:21:13;10.55;;;4.95;;
35330;SDS011;21441;52.190;20.910;2023-05-20T04:23:40;6.25;;;5.05;;
35330;SDS011;21441;52.190;20.910;2023-05-20T04:26:07;8.02;;;4.53;;
35330;SDS011;21441;52.190;20.910;2023-05-20T04:28:34;8.07;;;4.47;;
35330;SDS011;21441;52.190;20.910;2023-05-20T04:31:02;6.35;;;4.25;;
35330;SDS011;21441;52.190;20.910;2023-05-20T04:33:31;6.07;;;4.68;;
35330;SDS011;21441;52.190;20.910;2023-05-20T04:36:02;6.55;;;4.20;;
35330;SDS011;21441;52.190;20.910;2023-05-20T04:38:30;5.05;;;3.83;;
35330;SDS011;21441;52.190;20.910;2023-05-20T04:40:57;5.93;;;4.60;;
35330;SDS011;21441;52.190;20.910;2023-05-20T04:43:24;6.28;;;4.53;;
35330;SDS011;21441;52.190;20.910;2023-05-20T04:45:54;8.57;;;4.20;;
35330;SDS011;21441;52.190;20.910;2023-05-20T04:48:22;6.25;;;3.90;;
35330;SDS011;21441;52.190;20.910;2023-05-20T04:50:51;7.22;;;3.85;;
35330;SDS011;21441;52.190;20.910;2023-05-20T04:53:18;4.90;;;3.55;;
35330;SDS011;21441;52.190;20.910;2023-05-20T04:55:46;5.55;;;4.13;;
35330;SDS011;21441;52.190;20.910;2023-05-20T04:58:14;8.88;;;4.18;;
35330;SDS011;21441;52.190;20.910;2023-05-20T05:00:42;5.28;;;3.92;;
35330;SDS011;21441;52.190;20.910;2023-05-20T05:03:09;7.07;;;4.03;;
35330;SDS011;21441;52.190;20.910;2023-05-20T05:05:38;5.93;;;3.92;;
35330;SDS011;21441;52.190;20.910;2023-05-20T05:08:06;10.05;;;6.53;;
35330;SDS011;21441;52.190;20.910;2023-05-20T05:10:34;8.35;;;5.20;;
35330;SDS011;21441;52.190;20.910;2023-05-20T05:13:02;7.22;;;3.53;;
35330;SDS011;21441;52.190;20.910;2023-05-20T05:15:29;5.40;;;3.70;;
35330;SDS011;21441;52.190;20.910;2023-05-20T05:17:56;6.78;;;3.95;;
35330;SDS011;21441;52.190;20.910;2023-05-20T05:20:24;7.35;;;3.78;;
35330;SDS011;21441;52.190;20.910;2023-05-20T05:22:50;10.20;;;3.90;;
35330;SDS011;21441;52.190;20.910;2023-05-20T05:25:19;4.25;;;3.40;;
35330;SDS011;21441;52.190;20.910;2023-05-20T05:27:46;9.60;;;3.75;;
35330;SDS011;21441;52.190;20.910;2023-05-20T05:30:15;5.15;;;3.88;;
35330;SDS011;21441;52.190;20.910;2023-05-20T05:32:42;7.63;;;3.88;;
35330;SDS011;21441;52.190;20.910;2023-05-20T05:35:10;6.97;;;3.58;;
35330;SDS011;21441;52.190;20.910;2023-05-20T05:37:36;5.30;;;3.35;;
35330;SDS011;21441;52.190;20.910;2023-05-20T05:40:04;8.02;;;3.67;;
35330;SDS011;21441;52.190;20.910;2023-05-20T05:42:34;4.93;;;3.70;;
35330;SDS011;21441;52.190;20.910;2023-05-20T05:45:02;6.53;;;3.88;;
35330;SDS011;21441;52.190;20.910;2023-05-20T05:47:29;7.13;;;4.20;;
35330;SDS011;21441;52.190;20.910;2023-05-20T05:49:57;6.03;;;3.78;;
35330;SDS011;21441;52.190;20.910;2023-05-20T05:52:24;7.10;;;3.60;;
35330;SDS011;21441;52.190;20.910;2023-05-20T05:54:52;7.22;;;4.32;;
35330;SDS011;21441;52.190;20.910;2023-05-20T05:57:19;9.32;;;4.07;;
35330;SDS011;21441;52.190;20.910;2023-05-20T05:59:48;5.95;;;3.90;;
35330;SDS011;21441;52.190;20.910;2023-05-20T06:02:16;8.75;;;4.13;;
35330;SDS011;21441;52.190;20.910;2023-05-20T06:04:43;6.35;;;4.13;;
35330;SDS011;21441;52.190;20.910;2023-05-20T06:07:10;8.90;;;4.05;;
35330;SDS011;21441;52.190;20.910;2023-05-20T06:09:37;6.38;;;4.10;;
35330;SDS011;21441;52.190;20.910;2023-05-20T06:12:05;7.93;;;4.25;;
35330;SDS011;21441;52.190;20.910;2023-05-20T06:14:33;6.07;;;3.80;;
35330;SDS011;21441;52.190;20.910;2023-05-20T06:17:02;5.18;;;3.60;;
35330;SDS011;21441;52.190;20.910;2023-05-20T06:19:30;6.43;;;4.15;;
35330;SDS011;21441;52.190;20.910;2023-05-20T06:21:57;6.47;;;4.22;;
35330;SDS011;21441;52.190;20.910;2023-05-20T06:24:24;8.73;;;4.55;;
35330;SDS011;21441;52.190;20.910;2023-05-20T06:26:51;7.53;;;4.38;;
35330;SDS011;21441;52.190;20.910;2023-05-20T06:29:19;7.57;;;4.32;;
35330;SDS011;21441;52.190;20.910;2023-05-20T06:31:45;8.45;;;5.22;;
35330;SDS011;21441;52.190;20.910;2023-05-20T06:34:14;6.85;;;4.30;;
35330;SDS011;21441;52.190;20.910;2023-05-20T06:36:41;10.40;;;4.57;;
35330;SDS011;21441;52.190;20.910;2023-05-20T06:39:09;7.25;;;4.43;;
35330;SDS011;21441;52.190;20.910;2023-05-20T06:41:37;5.82;;;4.05;;
35330;SDS011;21441;52.190;20.910;2023-05-20T06:44:05;7.28;;;5.00;;
35330;SDS011;21441;52.190;20.910;2023-05-20T06:46:32;6.82;;;4.18;;
35330;SDS011;21441;52.190;20.910;2023-05-20T06:49:00;6.72;;;4.45;;
35330;SDS011;21441;52.190;20.910;2023-05-20T06:51:28;6.10;;;4.47;;
35330;SDS011;21441;52.190;20.910;2023-05-20T06:53:56;5.97;;;4.45;;
35330;SDS011;21441;52.190;20.910;2023-05-20T06:56:23;6.93;;;4.78;;
35330;SDS011;21441;52.190;20.910;2023-05-20T06:58:50;6.40;;;4.65;;
35330;SDS011;21441;52.190;20.910;2023-05-20T07:01:17;5.55;;;5.05;;
35330;SDS011;21441;52.190;20.910;2023-05-20T07:03:45;6.63;;;4.60;;
35330;SDS011;21441;52.190;20.910;2023-05-20T07:06:12;10.45;;;5.13;;
35330;SDS011;21441;52.190;20.910;2023-05-20T07:08:40;8.05;;;4.57;;
35330;SDS011;21441;52.190;20.910;2023-05-20T07:11:07;5.38;;;4.80;;
35330;SDS011;21441;52.190;20.910;2023-05-20T07:13:35;9.10;;;4.88;;
35330;SDS011;21441;52.190;20.910;2023-05-20T07:16:02;5.35;;;4.78;;
35330;SDS011;21441;52.190;20.910;2023-05-20T07:18:29;5.75;;;4.20;;
35330;SDS011;21441;52.190;20.910;2023-05-20T07:20:56;6.65;;;4.68;;
35330;SDS011;21441;52.190;20.910;2023-05-20T07:23:23;7.05;;;4.82;;
35330;SDS011;21441;52.190;20.910;2023-05-20T07:25:53;6.13;;;4.25;;
35330;SDS011;21441;52.190;20.910;2023-05-20T07:28:20;9.40;;;4.97;;
35330;SDS011;21441;52.190;20.910;2023-05-20T07:30:47;6.95;;;4.90;;
35330;SDS011;21441;52.190;20.910;2023-05-20T07:33:15;10.40;;;4.93;;
35330;SDS011;21441;52.190;20.910;2023-05-20T07:35:42;7.80;;;5.32;;
35330;SDS011;21441;52.190;20.910;2023-05-20T07:38:10;7.13;;;4.53;;
35330;SDS011;21441;52.190;20.910;2023-05-20T07:40:38;8.07;;;4.80;;
35330;SDS011;21441;52.190;20.910;2023-05-20T07:43:08;6.93;;;4.65;;
35330;SDS011;21441;52.190;20.910;2023-05-20T07:45:35;5.50;;;4.82;;
35330;SDS011;21441;52.190;20.910;2023-05-20T07:48:03;5.68;;;4.65;;
35330;SDS011;21441;52.190;20.910;2023-05-20T07:50:30;8.18;;;3.92;;
35330;SDS011;21441;52.190;20.910;2023-05-20T07:52:57;7.60;;;4.95;;
35330;SDS011;21441;52.190;20.910;2023-05-20T07:55:24;5.15;;;4.38;;
35330;SDS011;21441;52.190;20.910;2023-05-20T07:57:52;10.25;;;4.90;;
35330;SDS011;21441;52.190;20.910;2023-05-20T08:00:20;5.70;;;3.95;;
35330;SDS011;21441;52.190;20.910;2023-05-20T08:02:47;10.63;;;6.57;;
35330;SDS011;21441;52.190;20.910;2023-05-20T08:05:15;7.35;;;4.35;;
35330;SDS011;21441;52.190;20.910;2023-05-20T08:07:42;6.82;;;4.60;;
35330;SDS011;21441;52.190;20.910;2023-05-20T08:10:09;5.47;;;3.75;;
35330;SDS011;21441;52.190;20.910;2023-05-20T08:12:37;4.40;;;4.00;;
35330;SDS011;21441;52.190;20.910;2023-05-20T08:15:04;6.57;;;4.97;;
35330;SDS011;21441;52.190;20.910;2023-05-20T08:17:34;6.30;;;4.43;;
35330;SDS011;21441;52.190;20.910;2023-05-20T08:20:03;6.22;;;4.78;;
35330;SDS011;21441;52.190;20.910;2023-05-20T08:22:32;9.15;;;4.75;;
35330;SDS011;21441;52.190;20.910;2023-05-20T08:25:00;7.57;;;5.15;;
35330;SDS011;21441;52.190;20.910;2023-05-20T08:27:27;6.90;;;4.10;;
35330;SDS011;21441;52.190;20.910;2023-05-20T08:29:54;7.25;;;4.07;;
35330;SDS011;21441;52.190;20.910;2023-05-20T08:32:22;8.02;;;4.30;;
35330;SDS011;21441;52.190;20.910;2023-05-20T08:34:50;8.25;;;4.88;;
35330;SDS011;21441;52.190;20.910;2023-05-20T08:37:17;6.45;;;4.03;;
35330;SDS011;21441;52.190;20.910;2023-05-20T08:39:45;4.38;;;4.00;;
35330;SDS011;21441;52.190;20.910;2023-05-20T08:42:13;6.03;;;4.20;;
35330;SDS011;21441;52.190;20.910;2023-05-20T08:44:41;8.88;;;5.22;;
35330;SDS011;21441;52.190;20.910;2023-05-20T08:47:08;5.70;;;4.03;;
35330;SDS011;21441;52.190;20.910;2023-05-20T08:49:36;7.93;;;4.22;;
35330;SDS011;21441;52.190;20.910;2023-05-20T08:52:05;4.43;;;4.00;;
35330;SDS011;21441;52.190;20.910;2023-05-20T08:54:39;5.18;;;4.30;;
35330;SDS011;21441;52.190;20.910;2023-05-20T08:57:10;4.93;;;4.05;;
35330;SDS011;21441;52.190;20.910;2023-05-20T08:59:39;8.35;;;4.32;;
35330;SDS011;21441;52.190;20.910;2023-05-20T09:02:08;6.22;;;4.07;;
35330;SDS011;21441;52.190;20.910;2023-05-20T09:04:35;8.85;;;4.70;;
35330;SDS011;21441;52.190;20.910;2023-05-20T09:07:03;5.85;;;4.20;;
35330;SDS011;21441;52.190;20.910;2023-05-20T09:09:32;7.80;;;4.72;;
35330;SDS011;21441;52.190;20.910;2023-05-20T09:12:01;5.60;;;3.92;;
35330;SDS011;21441;52.190;20.910;2023-05-20T09:14:28;4.28;;;3.78;;
35330;SDS011;21441;52.190;20.910;2023-05-20T09:16:56;5.13;;;4.20;;
35330;SDS011;21441;52.190;20.910;2023-05-20T09:19:23;6.53;;;4.63;;
35330;SDS011;21441;52.190;20.910;2023-05-20T09:21:51;7.28;;;4.55;;
35330;SDS011;21441;52.190;20.910;2023-05-20T09:24:21;7.25;;;4.55;;
35330;SDS011;21441;52.190;20.910;2023-05-20T09:26:51;5.80;;;4.70;;
35330;SDS011;21441;52.190;20.910;2023-05-20T09:29:18;6.50;;;4.28;;
35330;SDS011;21441;52.190;20.910;2023-05-20T09:31:46;6.22;;;4.30;;
35330;SDS011;21441;52.190;20.910;2023-05-20T09:34:13;7.80;;;4.57;;
35330;SDS011;21441;52.190;20.910;2023-05-20T09:36:42;5.38;;;4.22;;
35330;SDS011;21441;52.190;20.910;2023-05-20T09:39:11;5.18;;;4.30;;
35330;SDS011;21441;52.190;20.910;2023-05-20T09:41:44;6.00;;;4.63;;
35330;SDS011;21441;52.190;20.910;2023-05-20T09:44:19;5.22;;;4.10;;
35330;SDS011;21441;52.190;20.910;2023-05-20T09:46:47;4.93;;;4.43;;
35330;SDS011;21441;52.190;20.910;2023-05-20T09:49:16;5.05;;;4.50;;
35330;SDS011;21441;52.190;20.910;2023-05-20T09:51:46;9.73;;;4.72;;
35330;SDS011;21441;52.190;20.910;2023-05-20T09:54:14;5.30;;;4.80;;
35330;SDS011;21441;52.190;20.910;2023-05-20T09:56:43;7.65;;;5.35;;
35330;SDS011;21441;52.190;20.910;2023-05-20T09:59:12;6.80;;;4.78;;
35330;SDS011;21441;52.190;20.910;2023-05-20T10:01:43;5.53;;;4.40;;
35330;SDS011;21441;52.190;20.910;2023-05-20T10:04:10;8.35;;;5.60;;
35330;SDS011;21441;52.190;20.910;2023-05-20T10:06:48;5.05;;;4.55;;
35330;SDS011;21441;52.190;20.910;2023-05-20T10:09:37;5.30;;;4.80;;
35330;SDS011;21441;52.190;20.910;2023-05-20T10:12:26;6.57;;;5.10;;
35330;SDS011;21441;52.190;20.910;2023-05-20T10:15:03;8.50;;;4.93;;
35330;SDS011;21441;52.190;20.910;2023-05-20T10:17:40;5.70;;;5.18;;
35330;SDS011;21441;52.190;20.910;2023-05-20T10:20:13;8.35;;;4.88;;
35330;SDS011;21441;52.190;20.910;2023-05-20T10:22:41;6.32;;;4.53;;
35330;SDS011;21441;52.190;20.910;2023-05-20T10:25:10;9.82;;;5.40;;
35330;SDS011;21441;52.190;20.910;2023-05-20T10:27:49;5.63;;;4.82;;
35330;SDS011;21441;52.190;20.910;2023-05-20T10:30:16;7.80;;;5.95;;
35330;SDS011;21441;52.190;20.910;2023-05-20T10:32:56;5.53;;;4.85;;
35330;SDS011;21441;52.190;20.910;2023-05-20T10:35:25;7.03;;;5.80;;
35330;SDS011;21441;52.190;20.910;2023-05-20T10:37:53;7.38;;;5.32;;
35330;SDS011;21441;52.190;20.910;2023-05-20T10:40:32;6.82;;;5.20;;
35330;SDS011;21441;52.190;20.910;2023-05-20T10:43:07;5.65;;;5.15;;
35330;SDS011;21441;52.190;20.910;2023-05-20T10:45:35;7.25;;;5.68;;
35330;SDS011;21441;52.190;20.910;2023-05-20T10:48:20;8.85;;;6.32;;
35330;SDS011;21441;52.190;20.910;2023-05-20T10:50:50;7.28;;;5.32;;
35330;SDS011;21441;52.190;20.910;2023-05-20T10:53:21;8.63;;;5.15;;
35330;SDS011;21441;52.190;20.910;2023-05-20T10:55:49;7.22;;;4.93;;
35330;SDS011;21441;52.190;20.910;2023-05-20T10:58:18;6.22;;;5.38;;
35330;SDS011;21441;52.190;20.910;2023-05-20T11:00:46;6.80;;;4.97;;
35330;SDS011;21441;52.190;20.910;2023-05-20T11:03:14;5.57;;;5.07;;
35330;SDS011;21441;52.190;20.910;2023-05-20T11:05:44;7.28;;;5.05;;
35330;SDS011;21441;52.190;20.910;2023-05-20T11:08:12;6.13;;;5.30;;
35330;SDS011;21441;52.190;20.910;2023-05-20T11:10:40;8.23;;;5.05;;
35330;SDS011;21441;52.190;20.910;2023-05-20T11:13:11;5.85;;;5.03;;
35330;SDS011;21441;52.190;20.910;2023-05-20T11:15:38;7.10;;;4.97;;
35330;SDS011;21441;52.190;20.910;2023-05-20T11:18:05;9.32;;;4.88;;
35330;SDS011;21441;52.190;20.910;2023-05-20T11:20:32;8.10;;;4.90;;
35330;SDS011;21441;52.190;20.910;2023-05-20T11:23:04;5.97;;;4.80;;
35330;SDS011;21441;52.190;20.910;2023-05-20T11:25:32;6.32;;;5.22;;
35330;SDS011;21441;52.190;20.910;2023-05-20T11:27:59;6.38;;;5.50;;
35330;SDS011;21441;52.190;20.910;2023-05-20T11:30:26;8.80;;;5.25;;
35330;SDS011;21441;52.190;20.910;2023-05-20T11:32:56;7.28;;;5.10;;
35330;SDS011;21441;52.190;20.910;2023-05-20T11:35:25;7.00;;;5.35;;
35330;SDS011;21441;52.190;20.910;2023-05-20T11:37:55;5.32;;;4.82;;
35330;SDS011;21441;52.190;20.910;2023-05-20T11:40:25;6.97;;;5.45;;
35330;SDS011;21441;52.190;20.910;2023-05-20T11:45:21;5.90;;;5.38;;
35330;SDS011;21441;52.190;20.910;2023-05-20T11:47:59;7.05;;;5.20;;
35330;SDS011;21441;52.190;20.910;2023-05-20T11:50:27;8.43;;;6.15;;
35330;SDS011;21441;52.190;20.910;2023-05-20T11:52:57;6.57;;;5.03;;
35330;SDS011;21441;52.190;20.910;2023-05-20T11:55:27;6.97;;;5.93;;
35330;SDS011;21441;52.190;20.910;2023-05-20T11:57:54;7.32;;;5.00;;
35330;SDS011;21441;52.190;20.910;2023-05-20T12:00:22;8.50;;;5.43;;
35330;SDS011;21441;52.190;20.910;2023-05-20T12:02:50;6.95;;;5.00;;
35330;SDS011;21441;52.190;20.910;2023-05-20T12:05:17;6.70;;;5.72;;
35330;SDS011;21441;52.190;20.910;2023-05-20T12:07:44;6.57;;;5.65;;
35330;SDS011;21441;52.190;20.910;2023-05-20T12:10:11;6.97;;;5.10;;
35330;SDS011;21441;52.190;20.910;2023-05-20T12:12:41;7.13;;;5.22;;
35330;SDS011;21441;52.190;20.910;2023-05-20T12:15:10;7.20;;;5.70;;
35330;SDS011;21441;52.190;20.910;2023-05-20T12:17:44;8.93;;;5.60;;
35330;SDS011;21441;52.190;20.910;2023-05-20T12:20:13;6.68;;;5.85;;
35330;SDS011;21441;52.190;20.910;2023-05-20T12:22:42;6.30;;;5.72;;
35330;SDS011;21441;52.190;20.910;2023-05-20T12:25:10;8.18;;;5.70;;
35330;SDS011;21441;52.190;20.910;2023-05-20T12:27:40;8.07;;;5.88;;
35330;SDS011;21441;52.190;20.910;2023-05-20T12:30:13;8.13;;;5.70;;
35330;SDS011;21441;52.190;20.910;2023-05-20T12:32:41;8.05;;;5.72;;
35330;SDS011;21441;52.190;20.910;2023-05-20T12:35:09;6.80;;;5.78;;
35330;SDS011;21441;52.190;20.910;2023-05-20T12:37:37;5.72;;;5.20;;
35330;SDS011;21441;52.190;20.910;2023-05-20T12:40:06;8.30;;;5.60;;
35330;SDS011;21441;52.190;20.910;2023-05-20T12:42:35;6.57;;;5.22;;
35330;SDS011;21441;52.190;20.910;2023-05-20T12:45:05;6.40;;;5.70;;
35330;SDS011;21441;52.190;20.910;2023-05-20T12:47:33;6.32;;;5.40;;
35330;SDS011;21441;52.190;20.910;2023-05-20T12:50:01;7.70;;;5.93;;
35330;SDS011;21441;52.190;20.910;2023-05-20T12:52:29;6.22;;;5.72;;
35330;SDS011;21441;52.190;20.910;2023-05-20T12:54:56;7.32;;;5.28;;
35330;SDS011;21441;52.190;20.910;2023-05-20T12:57:24;7.43;;;5.20;;
35330;SDS011;21441;52.190;20.910;2023-05-20T12:59:51;6.35;;;5.32;;
35330;SDS011;21441;52.190;20.910;2023-05-20T13:02:20;8.55;;;5.57;;
35330;SDS011;21441;52.190;20.910;2023-05-20T13:04:47;6.53;;;5.88;;
35330;SDS011;21441;52.190;20.910;2023-05-20T13:07:14;8.32;;;5.45;;
35330;SDS011;21441;52.190;20.910;2023-05-20T13:09:41;8.85;;;5.65;;
35330;SDS011;21441;52.190;20.910;2023-05-20T13:12:09;7.78;;;5.90;;
35330;SDS011;21441;52.190;20.910;2023-05-20T13:14:36;6.43;;;5.80;;
35330;SDS011;21441;52.190;20.910;2023-05-20T13:17:04;6.53;;;5.75;;
35330;SDS011;21441;52.190;20.910;2023-05-20T13:19:32;7.82;;;6.40;;
35330;SDS011;21441;52.190;20.910;2023-05-20T13:22:00;6.05;;;5.45;;
35330;SDS011;21441;52.190;20.910;2023-05-20T13:24:27;7.68;;;5.97;;
35330;SDS011;21441;52.190;20.910;2023-05-20T13:26:54;8.30;;;5.93;;
35330;SDS011;21441;52.190;20.910;2023-05-20T13:29:21;7.28;;;5.47;;
35330;SDS011;21441;52.190;20.910;2023-05-20T13:31:48;6.90;;;6.03;;
35330;SDS011;21441;52.190;20.910;2023-05-20T13:34:15;7.43;;;5.40;;
35330;SDS011;21441;52.190;20.910;2023-05-20T13:36:44;10.55;;;6.40;;
35330;SDS011;21441;52.190;20.910;2023-05-20T13:39:12;5.30;;;4.65;;
35330;SDS011;21441;52.190;20.910;2023-05-20T13:41:39;6.05;;;5.07;;
35330;SDS011;21441;52.190;20.910;2023-05-20T13:44:06;8.02;;;5.47;;
35330;SDS011;21441;52.190;20.910;2023-05-20T13:46:34;6.60;;;5.25;;
35330;SDS011;21441;52.190;20.910;2023-05-20T13:49:02;6.40;;;5.03;;
35330;SDS011;21441;52.190;20.910;2023-05-20T13:51:29;8.65;;;4.82;;
35330;SDS011;21441;52.190;20.910;2023-05-20T13:53:58;9.02;;;5.50;;
35330;SDS011;21441;52.190;20.910;2023-05-20T13:56:25;7.25;;;5.55;;
35330;SDS011;21441;52.190;20.910;2023-05-20T13:58:52;9.15;;;5.57;;
35330;SDS011;21441;52.190;20.910;2023-05-20T14:01:20;8.45;;;5.53;;
35330;SDS011;21441;52.190;20.910;2023-05-20T14:03:47;6.10;;;5.50;;
35330;SDS011;21441;52.190;20.910;2023-05-20T14:06:14;7.18;;;5.18;;
35330;SDS011;21441;52.190;20.910;2023-05-20T14:08:43;8.85;;;5.70;;
35330;SDS011;21441;52.190;20.910;2023-05-20T14:11:12;6.03;;;5.43;;
35330;SDS011;21441;52.190;20.910;2023-05-20T14:13:39;8.00;;;6.32;;
35330;SDS011;21441;52.190;20.910;2023-05-20T14:16:07;8.98;;;5.40;;
35330;SDS011;21441;52.190;20.910;2023-05-20T14:18:34;6.70;;;5.38;;
35330;SDS011;21441;52.190;20.910;2023-05-20T14:21:01;11.18;;;5.60;;
35330;SDS011;21441;52.190;20.910;2023-05-20T14:23:28;5.45;;;4.95;;
35330;SDS011;21441;52.190;20.910;2023-05-20T14:25:56;6.47;;;5.88;;
35330;SDS011;21441;52.190;20.910;2023-05-20T14:28:24;8.68;;;5.90;;
35330;SDS011;21441;52.190;20.910;2023-05-20T14:30:51;6.10;;;5.03;;
35330;SDS011;21441;52.190;20.910;2023-05-20T14:33:18;7.72;;;5.20;;
35330;SDS011;21441;52.190;20.910;2023-05-20T14:35:46;7.57;;;5.35;;
35330;SDS011;21441;52.190;20.910;2023-05-20T14:38:13;6.95;;;5.38;;
35330;SDS011;21441;52.190;20.910;2023-05-20T14:40:41;8.20;;;5.50;;
35330;SDS011;21441;52.190;20.910;2023-05-20T14:43:08;6.63;;;5.68;;